OIZI  Iran Shahr Airport

Add Bookmark

Iran

Status
Operational
Latitude Longitude
27° 14' 9" N 60° 43' 12" E
27.236099 60.720001
Local (DST + 5) UTC (GMT + 4)
Dec 18, 2014 02:54 Dec 17, 2014 23:24
Sunrise-Sunset Local UTC
Begin Civil Twilight 05:44 02:14
Sunrise 06:09 02:39
Sunset 04:37 13:07
End Civil Twilight 05:03 13:33

Current Weather

METAR Observed VFR
OIZI 172100Z 36006KT CAVOK 11/M13 Q1020 Wed, Dec 17, 2014 @ 21:00 UTC
(2 Hours, 24 Minutes ago)
Visual Flight Rules
Wind Visibility Clouds Conditions
360° at 6 knots (11 kph) 10 km or more
  • Clear skies
  • No significant weather
Temperatures Readings Precipitation
Current Temp 11°C (52°F)
Dewpoint -13°C (9°F)
Humidity 17%
Altimeter 30.12"Hg
Sea Level Pressure 1020mb
Field Elevation 1938.98'
None Recorded

24 Hour Weather History

Loading
-

24 Hour Weather Graphs

Loading
-

CheckWX.com is intended as a tool to help pilots better visualize weather data. It is not intended as a substitute for an official weather briefing obtained from a Flight Service Station. CheckWX.com does not meet the FAA requirements for an official pre-flight weather briefing. Therefore, it's important that pilots still call and obtain an official FSS pre-flight weather briefing.